Parkstone, United Kingdom
Current Conditions -  °F | °C
As of 8:50 PM on Thursday 27 Nov 2014 (Local Time) from EGHH Reporting Station
Few Clouds Few Clouds  
Wind Chill: 42°   Ceiling: Unl
Heat Index: 46°   Visibility: 4mi
Dew Point: 45°   Wind: 8mph
Humidity: 93%   Direction: 70°ENE
Pressure: 29.5"   Gusts: NA
Location:  50.73°N, 1.94°W
Report Text: EGHH 272050Z 07007KT 7000 FEW020 08/07 Q0999
Loading
Personal Weather Stations






























Interactive Weather Map New forecast layout! Learn more

10-Day Weather Forecast

Advertisements
Track Severe Weather on mobile